Time;durP1;ratioP1;P1;durP2;ratioP2;P2;SDS_P1;SDS_P2;PMS_P1;PMS_P2;Temp;Humidity;BMP_temperature;BMP_pressure;BME280_temperature;BME280_humidity;BME280_pressure;Samples;Min_cycle;Max_cycle;Signal;HPM_P1;HPM_P2
2022/02/06 00:01:22;;;;;;;4.30;1.77;;;;;;;;;;4971246;28;20050;-67
2022/02/06 00:03:49;;;;;;;4.50;2.40;;;;;;;;;;4972372;28;20055;-68
2022/02/06 00:06:16;;;;;;;6.25;1.95;;;;;;;;;;4972605;28;20105;-67
2022/02/06 00:08:42;;;;;;;4.90;1.80;;;;;;;;;;4975574;28;20051;-68
2022/02/06 00:11:09;;;;;;;5.90;1.40;;;;;;;;;;4974254;28;20062;-68
2022/02/06 00:13:35;;;;;;;5.75;2.05;;;;;;;;;;4974282;28;20113;-68
2022/02/06 00:16:02;;;;;;;4.35;1.70;;;;;;;;;;4974333;28;20043;-68
2022/02/06 00:18:28;;;;;;;4.60;1.60;;;;;;;;;;4974174;28;20567;-68
2022/02/06 00:20:59;;;;;;;8.75;2.53;;;;;;;;;;4974105;28;20402;-68
2022/02/06 00:23:28;;;;;;;7.53;1.70;;;;;;;;;;4974097;28;20078;-68
2022/02/06 00:26:01;;;;;;;5.32;2.30;;;;;;;;;;4974045;28;20561;-67
2022/02/06 00:39:14;;;;;;;5.63;2.17;;;;;;;;;;4973952;28;20047;-68
2022/02/06 00:41:41;;;;;;;6.68;2.67;;;;;;;;;;4973678;28;20054;-68
2022/02/06 00:44:09;;;;;;;8.93;2.00;;;;;;;;;;4988080;28;20054;-68
2022/02/06 00:46:37;;;;;;;8.07;2.03;;;;;;;;;;4973746;28;20054;-69
2022/02/06 00:49:13;;;;;;;4.78;1.63;;;;;;;;;;4973894;28;20101;-68
2022/02/06 00:51:55;;;;;;;11.75;1.88;;;;;;;;;;4973758;28;20395;-69
2022/02/06 00:54:22;;;;;;;4.73;1.60;;;;;;;;;;4986740;28;20518;-69
2022/02/06 00:56:48;;;;;;;4.22;1.45;;;;;;;;;;4973404;28;20105;-68
2022/02/06 00:59:15;;;;;;;5.32;1.77;;;;;;;;;;4973529;28;20430;-68
2022/02/06 01:01:42;;;;;;;6.95;1.48;;;;;;;;;;4973475;28;20133;-68
2022/02/06 01:04:10;;;;;;;6.75;1.33;;;;;;;;;;4973204;28;20490;-68
2022/02/06 01:06:37;;;;;;;4.97;1.80;;;;;;;;;;4973384;28;20046;-69
2022/02/06 01:09:04;;;;;;;3.83;1.55;;;;;;;;;;4973216;28;20050;-67
2022/02/06 01:11:32;;;;;;;3.05;1.45;;;;;;;;;;4973342;28;20055;-68
2022/02/06 01:14:53;;;;;;;5.70;1.63;;;;;;;;;;4973044;28;20465;-69
2022/02/06 01:16:57;;;;;;;2.63;1.25;;;;;;;;;;4975922;28;20481;-68
2022/02/06 01:19:29;;;;;;;5.57;1.40;;;;;;;;;;4973459;28;20051;-68
2022/02/06 01:22:04;;;;;;;6.70;1.95;;;;;;;;;;4972911;28;20081;-68
2022/02/06 01:24:42;;;;;;;6.50;1.45;;;;;;;;;;4973250;28;20050;-69
2022/02/06 01:27:20;;;;;;;4.63;1.30;;;;;;;;;;4973053;28;20082;-68
2022/02/06 01:30:01;;;;;;;6.20;1.30;;;;;;;;;;4972750;28;20089;-68
2022/02/06 01:32:39;;;;;;;9.30;1.30;;;;;;;;;;4972947;28;20101;-68
2022/02/06 01:35:12;;;;;;;7.95;1.38;;;;;;;;;;4972895;28;20051;-68
2022/02/06 01:37:48;;;;;;;3.83;1.58;;;;;;;;;;4973111;28;20086;-68
2022/02/06 01:40:31;;;;;;;3.33;1.30;;;;;;;;;;4973040;28;20059;-68
2022/02/06 01:43:07;;;;;;;3.72;0.98;;;;;;;;;;4972723;28;20059;-67
2022/02/06 01:45:59;;;;;;;7.70;1.80;;;;;;;;;;4973077;28;20062;-68
2022/02/06 02:05:53;;;;;;;5.05;1.00;;;;;;;;;;4951221;29;20103;-68
2022/02/06 02:13:59;;;;;;;3.17;1.50;;;;;;;;;;4986669;28;20051;-69
2022/02/06 02:22:26;;;;;;;5.18;1.50;;;;;;;;;;4972690;28;20098;-68
2022/02/06 02:30:36;;;;;;;2.20;1.30;;;;;;;;;;4953402;28;20083;-68
2022/02/06 02:46:37;;;;;;;4.15;1.20;;;;;;;;;;4975911;28;20494;-68
2022/02/06 02:49:06;;;;;;;3.83;1.15;;;;;;;;;;4976265;28;20050;-68
2022/02/06 02:51:37;;;;;;;2.35;1.00;;;;;;;;;;4975806;28;20086;-68
2022/02/06 02:54:10;;;;;;;4.68;1.25;;;;;;;;;;4975736;28;20097;-68
2022/02/06 02:56:48;;;;;;;4.15;1.63;;;;;;;;;;4975744;28;20513;-68
2022/02/06 02:59:29;;;;;;;4.07;1.05;;;;;;;;;;4975845;28;20122;-68
2022/02/06 03:01:59;;;;;;;3.67;1.13;;;;;;;;;;4974562;28;20054;-68
2022/02/06 03:04:26;;;;;;;5.13;0.95;;;;;;;;;;4975810;28;20047;-69
2022/02/06 03:06:53;;;;;;;3.78;1.50;;;;;;;;;;4975686;28;20046;-68
2022/02/06 03:09:21;;;;;;;9.75;1.20;;;;;;;;;;4975531;28;20055;-69
2022/02/06 03:11:48;;;;;;;9.45;2.33;;;;;;;;;;4975742;28;20051;-68
2022/02/06 03:14:24;;;;;;;3.58;1.13;;;;;;;;;;4975318;28;20120;-68
2022/02/06 03:17:01;;;;;;;3.60;0.90;;;;;;;;;;4975451;28;20051;-68
2022/02/06 03:19:29;;;;;;;6.32;0.95;;;;;;;;;;4975438;28;20105;-68
2022/02/06 03:21:57;;;;;;;7.25;2.35;;;;;;;;;;4975100;28;20086;-69
2022/02/06 03:24:26;;;;;;;3.03;0.90;;;;;;;;;;4975286;28;20059;-69
2022/02/06 03:26:54;;;;;;;2.45;0.98;;;;;;;;;;4975232;28;20501;-68
2022/02/06 03:29:23;;;;;;;5.13;0.98;;;;;;;;;;4975236;28;20113;-68
2022/02/06 03:34:21;;;;;;;6.07;1.00;;;;;;;;;;4934401;29;20052;-69
2022/02/06 03:36:48;;;;;;;4.72;0.90;;;;;;;;;;4937106;29;20422;-69
2022/02/06 03:39:22;;;;;;;5.03;1.10;;;;;;;;;;4936833;29;20055;-69
2022/02/06 03:44:28;;;;;;;2.40;0.80;;;;;;;;;;4936545;29;20466;-70
2022/02/06 03:47:03;;;;;;;3.30;0.90;;;;;;;;;;4949648;29;20099;-70
2022/02/06 03:50:05;;;;;;;3.97;1.33;;;;;;;;;;4936891;29;20114;-70
2022/02/06 03:52:27;;;;;;;3.20;1.00;;;;;;;;;;4935359;29;20111;-69
2022/02/06 03:54:54;;;;;;;5.05;1.00;;;;;;;;;;4936096;29;20052;-69
2022/02/06 03:57:21;;;;;;;3.13;0.98;;;;;;;;;;4936350;29;20103;-70
2022/02/06 03:59:47;;;;;;;3.10;0.90;;;;;;;;;;4936609;29;20056;-70
2022/02/06 04:02:14;;;;;;;5.97;2.00;;;;;;;;;;4936103;29;20099;-69
2022/02/06 04:04:40;;;;;;;2.17;1.00;;;;;;;;;;4936443;29;20466;-67
2022/02/06 04:07:11;;;;;;;5.63;1.35;;;;;;;;;;4936021;29;20094;-67
2022/02/06 04:09:52;;;;;;;3.90;1.10;;;;;;;;;;4936298;29;20562;-67
2022/02/06 04:12:21;;;;;;;2.75;0.90;;;;;;;;;;4922645;29;20076;-67
2022/02/06 04:14:58;;;;;;;4.15;1.00;;;;;;;;;;4946424;29;20102;-68
2022/02/06 04:17:27;;;;;;;4.68;0.98;;;;;;;;;;4936361;29;20075;-68
2022/02/06 04:19:53;;;;;;;3.42;0.98;;;;;;;;;;4936397;29;20051;-68
2022/02/06 04:22:21;;;;;;;5.30;1.08;;;;;;;;;;4935642;29;20522;-68
2022/02/06 04:24:48;;;;;;;9.85;1.20;;;;;;;;;;4936091;29;20431;-68
2022/02/06 04:27:15;;;;;;;5.03;1.02;;;;;;;;;;4935838;29;20055;-67
2022/02/06 04:29:41;;;;;;;6.10;1.30;;;;;;;;;;4936043;29;20059;-68
2022/02/06 04:32:08;;;;;;;3.42;0.95;;;;;;;;;;4935432;29;20056;-68
2022/02/06 04:34:35;;;;;;;6.47;1.20;;;;;;;;;;4935807;29;20526;-68
2022/02/06 04:42:42;;;;;;;3.30;1.10;;;;;;;;;;4935184;29;20055;-68
2022/02/06 05:13:11;;;;;;;5.22;0.80;;;;;;;;;;4935190;29;20103;-67
2022/02/06 05:15:35;;;;;;;3.42;0.98;;;;;;;;;;4935082;29;20107;-68
2022/02/06 05:24:20;;;;;;;3.70;1.10;;;;;;;;;;4935107;29;20047;-68
2022/02/06 05:33:31;;;;;;;5.13;1.15;;;;;;;;;;4949016;29;20048;-69
2022/02/06 05:35:58;;;;;;;2.13;0.80;;;;;;;;;;4934905;29;20055;-68
2022/02/06 05:38:27;;;;;;;9.10;1.27;;;;;;;;;;4935014;29;20048;-68
2022/02/06 05:40:54;;;;;;;3.50;0.95;;;;;;;;;;4934815;29;20059;-68
2022/02/06 05:43:21;;;;;;;3.30;0.90;;;;;;;;;;4934601;29;20474;-68
2022/02/06 05:45:47;;;;;;;2.22;1.00;;;;;;;;;;4934840;29;20083;-69
2022/02/06 05:48:14;;;;;;;3.80;0.90;;;;;;;;;;4934502;29;20055;-69
2022/02/06 05:50:42;;;;;;;6.10;1.20;;;;;;;;;;4934635;29;20059;-69
2022/02/06 05:53:10;;;;;;;3.38;0.98;;;;;;;;;;4933285;29;20107;-68
2022/02/06 05:55:38;;;;;;;4.28;1.27;;;;;;;;;;4934629;29;20051;-68
2022/02/06 05:58:05;;;;;;;2.75;0.70;;;;;;;;;;4935049;29;20103;-69
2022/02/06 06:00:32;;;;;;;4.53;1.20;;;;;;;;;;4933629;29;20107;-69
2022/02/06 06:03:00;;;;;;;1.98;0.95;;;;;;;;;;4935009;29;20059;-67
2022/02/06 06:05:27;;;;;;;5.50;1.17;;;;;;;;;;4939921;29;20051;-68
2022/02/06 06:07:54;;;;;;;5.35;0.93;;;;;;;;;;4934620;29;20103;-68
2022/02/06 06:10:24;;;;;;;4.57;1.10;;;;;;;;;;4934644;29;20447;-68
2022/02/06 06:12:51;;;;;;;2.88;1.13;;;;;;;;;;4934220;29;20423;-67
2022/02/06 06:15:18;;;;;;;2.13;1.05;;;;;;;;;;4934585;29;20056;-68
2022/02/06 06:17:45;;;;;;;4.28;1.02;;;;;;;;;;4937562;29;20499;-68
2022/02/06 06:20:16;;;;;;;3.70;1.25;;;;;;;;;;4938431;29;20063;-69
2022/02/06 06:22:43;;;;;;;5.47;1.15;;;;;;;;;;4938150;29;20280;-68
2022/02/06 06:25:11;;;;;;;5.25;1.17;;;;;;;;;;4937927;29;20491;-67
2022/02/06 06:27:38;;;;;;;6.57;1.45;;;;;;;;;;4938258;29;20052;-68
2022/02/06 06:30:05;;;;;;;8.73;1.08;;;;;;;;;;4938298;29;20055;-68
2022/02/06 06:32:32;;;;;;;6.25;2.20;;;;;;;;;;4937798;29;20570;-67
2022/02/06 06:35:00;;;;;;;4.05;0.98;;;;;;;;;;4938267;29;20051;-67
2022/02/06 06:37:26;;;;;;;3.70;1.05;;;;;;;;;;4937813;29;20135;-67
2022/02/06 06:39:53;;;;;;;8.23;1.20;;;;;;;;;;4938066;29;20055;-68
2022/02/06 06:42:20;;;;;;;3.58;1.25;;;;;;;;;;4937644;29;20051;-67
2022/02/06 06:44:47;;;;;;;2.60;0.80;;;;;;;;;;4936582;29;20083;-67
2022/02/06 06:47:14;;;;;;;10.07;1.85;;;;;;;;;;4937497;29;20579;-67
2022/02/06 06:49:40;;;;;;;6.85;1.40;;;;;;;;;;4937858;29;20043;-68
2022/02/06 06:52:08;;;;;;;7.03;1.05;;;;;;;;;;4937429;29;20047;-68
2022/02/06 06:54:38;;;;;;;5.57;1.10;;;;;;;;;;4938177;29;20471;-68
2022/02/06 07:02:19;;;;;;;2.70;0.98;;;;;;;;;;4937305;29;20048;-68
2022/02/06 07:04:47;;;;;;;3.67;1.15;;;;;;;;;;4937795;29;20055;-67
2022/02/06 07:07:13;;;;;;;4.43;1.10;;;;;;;;;;4937384;29;20056;-68
2022/02/06 07:09:41;;;;;;;5.00;1.05;;;;;;;;;;4937183;29;20052;-68
2022/02/06 07:12:10;;;;;;;7.95;1.17;;;;;;;;;;4936982;29;20052;-68
2022/02/06 07:14:36;;;;;;;3.67;0.70;;;;;;;;;;4937397;29;20059;-67
2022/02/06 07:17:04;;;;;;;5.90;1.70;;;;;;;;;;4937103;29;20047;-67
2022/02/06 07:19:35;;;;;;;3.50;0.90;;;;;;;;;;4937508;29;20051;-68
2022/02/06 07:22:03;;;;;;;5.25;0.88;;;;;;;;;;4937131;29;20296;-68
2022/02/06 07:24:31;;;;;;;5.32;1.25;;;;;;;;;;4937031;29;20055;-68
2022/02/06 07:27:01;;;;;;;4.18;1.10;;;;;;;;;;4936886;29;20052;-68
2022/02/06 07:29:28;;;;;;;1.90;1.00;;;;;;;;;;4936330;29;20065;-68
2022/02/06 07:31:57;;;;;;;5.57;1.13;;;;;;;;;;4936857;29;20052;-67
2022/02/06 07:34:23;;;;;;;2.65;0.90;;;;;;;;;;4937218;29;20075;-67
2022/02/06 07:36:50;;;;;;;2.40;1.00;;;;;;;;;;4936891;29;20079;-69
2022/02/06 07:39:16;;;;;;;2.75;1.13;;;;;;;;;;4937222;29;20095;-70
2022/02/06 07:41:43;;;;;;;5.20;1.15;;;;;;;;;;4936975;29;20067;-69
2022/02/06 07:44:10;;;;;;;4.57;2.00;;;;;;;;;;4936616;29;20055;-69
2022/02/06 07:46:45;;;;;;;4.40;0.98;;;;;;;;;;4936611;29;20063;-69
2022/02/06 07:49:14;;;;;;;4.30;0.88;;;;;;;;;;4936512;29;20056;-69
2022/02/06 07:51:41;;;;;;;3.67;0.90;;;;;;;;;;4935577;29;20466;-69
2022/02/06 07:54:08;;;;;;;9.57;2.00;;;;;;;;;;4936113;29;20051;-68
2022/02/06 07:56:34;;;;;;;4.22;1.70;;;;;;;;;;4936633;29;20103;-68
2022/02/06 07:59:01;;;;;;;4.45;1.08;;;;;;;;;;4936304;29;20087;-67
2022/02/06 08:01:28;;;;;;;4.53;1.17;;;;;;;;;;4936559;29;20052;-66
2022/02/06 08:03:54;;;;;;;3.65;1.20;;;;;;;;;;4935972;29;20075;-66
2022/02/06 08:06:21;;;;;;;4.38;1.10;;;;;;;;;;4934663;29;20114;-67
2022/02/06 08:08:47;;;;;;;3.42;1.08;;;;;;;;;;4933752;29;20581;-65
2022/02/06 08:11:15;;;;;;;5.38;1.50;;;;;;;;;;4934346;29;20059;-65
2022/02/06 08:13:46;;;;;;;6.93;1.10;;;;;;;;;;4934007;29;20103;-65
2022/02/06 08:16:14;;;;;;;4.63;1.02;;;;;;;;;;4934135;29;20157;-65
2022/02/06 08:18:42;;;;;;;4.63;0.88;;;;;;;;;;4934287;29;20047;-66
2022/02/06 08:21:10;;;;;;;6.55;1.50;;;;;;;;;;4933926;29;20055;-67
2022/02/06 08:23:44;;;;;;;9.23;1.40;;;;;;;;;;4947503;29;20520;-67
2022/02/06 08:26:11;;;;;;;4.85;1.70;;;;;;;;;;4934005;29;20048;-68
2022/02/06 08:28:39;;;;;;;4.00;1.30;;;;;;;;;;4934049;29;20103;-68
2022/02/06 08:31:06;;;;;;;2.47;0.70;;;;;;;;;;4932611;29;20062;-67
2022/02/06 08:33:32;;;;;;;3.65;1.27;;;;;;;;;;4932874;29;20052;-67
2022/02/06 08:36:00;;;;;;;4.32;0.75;;;;;;;;;;4933739;29;20056;-67
2022/02/06 08:38:27;;;;;;;6.07;1.35;;;;;;;;;;4934136;29;20043;-68
2022/02/06 08:40:54;;;;;;;5.22;1.25;;;;;;;;;;4933604;29;20051;-67
2022/02/06 08:43:20;;;;;;;4.47;1.05;;;;;;;;;;4933187;29;20065;-67
2022/02/06 08:45:47;;;;;;;4.05;1.30;;;;;;;;;;4933458;29;20052;-67
2022/02/06 08:48:14;;;;;;;5.22;1.30;;;;;;;;;;4933286;29;20513;-67
2022/02/06 08:50:40;;;;;;;6.72;1.88;;;;;;;;;;4923768;29;20578;-67
2022/02/06 08:53:07;;;;;;;5.30;1.60;;;;;;;;;;4928273;29;20054;-66
2022/02/06 08:55:34;;;;;;;8.30;1.48;;;;;;;;;;4932302;29;20106;-67
2022/02/06 08:58:01;;;;;;;5.28;1.90;;;;;;;;;;4932603;29;20051;-66
2022/02/06 09:00:28;;;;;;;4.95;1.35;;;;;;;;;;4931854;29;20055;-67
2022/02/06 09:02:55;;;;;;;4.32;0.90;;;;;;;;;;4932148;29;20055;-67
2022/02/06 09:05:23;;;;;;;5.68;1.00;;;;;;;;;;4931049;29;20126;-67
2022/02/06 09:07:50;;;;;;;3.63;1.27;;;;;;;;;;4943029;29;20055;-67
2022/02/06 09:10:19;;;;;;;2.78;1.10;;;;;;;;;;4931521;29;20431;-67
2022/02/06 09:12:51;;;;;;;4.63;1.40;;;;;;;;;;4930667;29;20498;-69
2022/02/06 09:15:18;;;;;;;8.13;1.60;;;;;;;;;;4931737;29;20055;-67
2022/02/06 09:17:45;;;;;;;3.95;1.55;;;;;;;;;;4932165;29;20126;-67
2022/02/06 09:20:16;;;;;;;6.55;1.20;;;;;;;;;;4932284;29;20051;-66
2022/02/06 09:22:43;;;;;;;8.23;1.58;;;;;;;;;;4931782;29;20051;-66
2022/02/06 09:25:11;;;;;;;2.75;1.20;;;;;;;;;;4932394;29;20048;-67
2022/02/06 09:27:38;;;;;;;2.35;1.05;;;;;;;;;;4931279;29;20048;-68
2022/02/06 09:30:07;;;;;;;3.60;0.85;;;;;;;;;;4931429;29;20499;-67
2022/02/06 09:37:32;;;;;;;4.40;1.65;;;;;;;;;;4931785;29;20126;-67
2022/02/06 09:39:59;;;;;;;3.58;1.10;;;;;;;;;;4946017;29;20047;-68
2022/02/06 09:42:28;;;;;;;2.17;1.02;;;;;;;;;;4930503;29;20059;-68
2022/02/06 09:44:58;;;;;;;2.35;1.00;;;;;;;;;;4930775;29;20055;-67
2022/02/06 09:47:27;;;;;;;4.95;0.88;;;;;;;;;;4931945;29;20066;-67
2022/02/06 09:49:54;;;;;;;4.05;1.10;;;;;;;;;;4929827;29;20406;-68
2022/02/06 09:52:25;;;;;;;5.50;1.00;;;;;;;;;;4927490;29;20060;-68
2022/02/06 09:54:53;;;;;;;3.78;0.80;;;;;;;;;;4931464;29;20051;-67
2022/02/06 09:57:30;;;;;;;3.13;0.80;;;;;;;;;;4930072;29;20060;-68
2022/02/06 09:59:58;;;;;;;2.78;1.10;;;;;;;;;;4931606;29;20047;-69
2022/02/06 10:02:29;;;;;;;6.72;1.20;;;;;;;;;;4931035;29;20102;-68
2022/02/06 10:04:56;;;;;;;4.60;1.38;;;;;;;;;;4931108;29;20664;-67
2022/02/06 10:07:29;;;;;;;6.10;1.35;;;;;;;;;;4931553;29;20110;-69
2022/02/06 10:09:58;;;;;;;6.47;1.20;;;;;;;;;;4924335;29;20052;-71
2022/02/06 10:12:25;;;;;;;4.00;1.10;;;;;;;;;;4928660;29;20418;-70
2022/02/06 10:14:52;;;;;;;2.30;0.85;;;;;;;;;;4929560;29;20421;-71
2022/02/06 10:17:23;;;;;;;4.95;1.70;;;;;;;;;;4934587;29;20115;-69
2022/02/06 10:19:54;;;;;;;4.18;1.00;;;;;;;;;;4933376;29;20052;-73
2022/02/06 10:22:28;;;;;;;8.23;2.25;;;;;;;;;;4927825;29;20400;-70
2022/02/06 10:25:08;;;;;;;3.55;1.15;;;;;;;;;;4931262;29;20059;-71
2022/02/06 10:28:32;;;;;;;6.72;1.27;;;;;;;;;;4928125;29;20055;-73
2022/02/06 10:31:00;;;;;;;6.40;1.20;;;;;;;;;;4931501;29;20051;-72
2022/02/06 10:33:53;;;;;;;4.18;1.25;;;;;;;;;;4941969;28;20059;-70
2022/02/06 10:36:30;;;;;;;4.18;1.80;;;;;;;;;;4930109;29;20064;-71
2022/02/06 10:39:06;;;;;;;5.47;2.13;;;;;;;;;;4930325;29;20068;-71
2022/02/06 10:41:34;;;;;;;7.22;1.13;;;;;;;;;;4930005;29;20474;-70
2022/02/06 10:44:04;;;;;;;3.58;1.50;;;;;;;;;;4930932;29;20466;-70
2022/02/06 10:46:34;;;;;;;4.18;1.10;;;;;;;;;;4930663;29;20052;-70
2022/02/06 10:49:15;;;;;;;5.90;1.55;;;;;;;;;;4930565;29;20048;-73
2022/02/06 10:51:49;;;;;;;2.85;1.38;;;;;;;;;;4930025;29;20043;-70
2022/02/06 10:54:29;;;;;;;5.45;1.23;;;;;;;;;;4926962;29;20534;-71
2022/02/06 10:57:13;;;;;;;4.25;1.10;;;;;;;;;;4931166;29;20055;-69
2022/02/06 10:59:42;;;;;;;3.85;1.40;;;;;;;;;;4931119;29;20095;-69
2022/02/06 11:02:29;;;;;;;6.03;1.45;;;;;;;;;;4929521;29;20051;-70
2022/02/06 11:04:59;;;;;;;1.75;1.00;;;;;;;;;;4934071;29;20060;-69
2022/02/06 11:07:26;;;;;;;6.57;2.03;;;;;;;;;;4933397;29;20059;-68
2022/02/06 11:10:07;;;;;;;0.82;0.75;;;;;;;;;;4934168;29;20438;-68
2022/02/06 11:12:34;;;;;;;7.22;1.23;;;;;;;;;;4933802;29;20502;-68
2022/02/06 11:15:03;;;;;;;2.75;0.90;;;;;;;;;;4934001;29;20048;-71
2022/02/06 11:17:33;;;;;;;2.95;0.90;;;;;;;;;;4931396;29;20088;-66
2022/02/06 11:20:07;;;;;;;2.30;0.90;;;;;;;;;;4933549;29;20043;-67
2022/02/06 11:22:36;;;;;;;4.28;1.17;;;;;;;;;;4933759;29;20123;-66
2022/02/06 11:25:05;;;;;;;4.20;1.33;;;;;;;;;;4928532;29;20111;-70
2022/02/06 11:27:33;;;;;;;4.78;1.50;;;;;;;;;;4934168;29;20051;-68
2022/02/06 11:30:00;;;;;;;4.95;1.88;;;;;;;;;;4933201;29;20419;-68
2022/02/06 11:32:27;;;;;;;5.18;1.88;;;;;;;;;;4930626;29;20059;-66
2022/02/06 11:34:56;;;;;;;4.40;1.80;;;;;;;;;;4934190;29;20114;-69
2022/02/06 11:43:55;;;;;;;3.55;1.30;;;;;;;;;;4931513;29;20115;-69
2022/02/06 11:46:49;;;;;;;2.65;0.93;;;;;;;;;;4933094;29;20059;-68
2022/02/06 11:49:16;;;;;;;1.53;0.80;;;;;;;;;;4933172;29;20533;-68
2022/02/06 11:51:53;;;;;;;2.85;1.20;;;;;;;;;;4932145;29;20052;-68
2022/02/06 11:54:30;;;;;;;4.00;2.35;;;;;;;;;;4933612;29;20122;-67
2022/02/06 11:57:24;;;;;;;3.80;0.90;;;;;;;;;;4933620;29;20579;-67
2022/02/06 12:02:33;;;;;;;3.30;0.70;;;;;;;;;;4933252;29;20059;-68
2022/02/06 12:05:09;;;;;;;2.80;1.00;;;;;;;;;;4933316;29;20051;-68
2022/02/06 12:08:07;;;;;;;3.20;0.90;;;;;;;;;;4933624;29;20055;-68
2022/02/06 12:10:34;;;;;;;3.88;1.00;;;;;;;;;;4933364;29;20048;-68
2022/02/06 12:13:33;;;;;;;2.88;0.80;;;;;;;;;;4932337;29;20399;-68
2022/02/06 12:16:03;;;;;;;2.42;0.80;;;;;;;;;;4932873;29;20047;-68
2022/02/06 12:18:38;;;;;;;3.75;0.98;;;;;;;;;;4932875;29;20428;-67
2022/02/06 12:21:23;;;;;;;2.22;0.95;;;;;;;;;;4932761;29;20075;-68
2022/02/06 12:23:55;;;;;;;2.65;0.52;;;;;;;;;;4930564;29;20048;-67
2022/02/06 12:26:29;;;;;;;3.47;1.10;;;;;;;;;;4932814;29;20047;-71
2022/02/06 12:29:02;;;;;;;1.75;0.82;;;;;;;;;;4933435;29;20120;-71
2022/02/06 12:31:30;;;;;;;1.35;0.90;;;;;;;;;;4933439;29;20055;-71
2022/02/06 12:37:06;;;;;;;1.90;0.80;;;;;;;;;;4927523;29;20075;-70
2022/02/06 12:39:36;;;;;;;3.13;0.98;;;;;;;;;;4933383;29;20478;-70
2022/02/06 12:42:03;;;;;;;1.33;0.60;;;;;;;;;;4931671;29;20095;-70
2022/02/06 12:44:31;;;;;;;1.90;0.85;;;;;;;;;;4933098;29;20055;-72
2022/02/06 12:47:00;;;;;;;1.02;0.40;;;;;;;;;;4932544;29;20055;-69
2022/02/06 12:49:31;;;;;;;2.38;0.93;;;;;;;;;;4932470;29;20127;-69
2022/02/06 12:51:58;;;;;;;2.83;1.05;;;;;;;;;;4930150;29;20059;-71
2022/02/06 12:54:26;;;;;;;3.22;0.80;;;;;;;;;;4932202;29;20059;-71
2022/02/06 12:56:57;;;;;;;1.23;0.70;;;;;;;;;;4931330;29;20047;-70
2022/02/06 12:59:26;;;;;;;2.33;0.70;;;;;;;;;;4932454;29;20052;-69
2022/02/06 13:01:55;;;;;;;1.02;0.52;;;;;;;;;;4946839;29;20515;-69
2022/02/06 13:04:30;;;;;;;1.50;0.55;;;;;;;;;;4932431;29;20056;-72
2022/02/06 13:07:02;;;;;;;0.90;0.50;;;;;;;;;;4932247;29;20056;-70
2022/02/06 13:09:39;;;;;;;0.70;0.45;;;;;;;;;;4932893;29;20127;-69
2022/02/06 13:15:15;;;;;;;1.02;0.68;;;;;;;;;;4932483;29;20056;-71
2022/02/06 13:18:06;;;;;;;4.57;0.80;;;;;;;;;;4931547;29;20087;-71
2022/02/06 13:26:15;;;;;;;3.70;1.23;;;;;;;;;;4929418;28;20055;-70
2022/02/06 13:29:01;;;;;;;0.80;0.80;;;;;;;;;;4932447;29;20055;-70
2022/02/06 13:36:42;;;;;;;2.00;0.98;;;;;;;;;;4947638;29;20467;-68
2022/02/06 13:39:25;;;;;;;2.78;0.90;;;;;;;;;;4939602;28;20110;-68
2022/02/06 13:41:52;;;;;;;2.95;1.40;;;;;;;;;;4951915;29;20055;-70
2022/02/06 13:44:21;;;;;;;5.43;1.40;;;;;;;;;;4931626;29;20102;-71
2022/02/06 13:46:48;;;;;;;0.88;0.70;;;;;;;;;;4946447;29;20142;-71
2022/02/06 13:49:15;;;;;;;2.80;1.20;;;;;;;;;;4942062;29;20048;-70
2022/02/06 13:51:48;;;;;;;2.08;1.10;;;;;;;;;;4923424;29;20566;-71
2022/02/06 13:54:15;;;;;;;2.22;1.17;;;;;;;;;;4929378;29;20443;-72
2022/02/06 13:56:43;;;;;;;2.13;1.20;;;;;;;;;;4930862;29;20063;-71
2022/02/06 13:59:11;;;;;;;2.65;1.23;;;;;;;;;;4931853;29;20122;-71
2022/02/06 14:01:43;;;;;;;1.15;0.75;;;;;;;;;;4929288;29;20107;-72
2022/02/06 14:04:26;;;;;;;1.48;0.70;;;;;;;;;;4930244;29;20052;-71
2022/02/06 14:07:20;;;;;;;4.45;1.05;;;;;;;;;;4932130;29;20052;-71
2022/02/06 14:10:10;;;;;;;3.80;1.25;;;;;;;;;;4929891;29;20072;-70
2022/02/06 14:12:48;;;;;;;1.90;0.80;;;;;;;;;;4930738;29;20048;-69
2022/02/06 14:15:23;;;;;;;0.85;0.63;;;;;;;;;;4931811;29;20107;-71
2022/02/06 14:17:52;;;;;;;3.33;0.82;;;;;;;;;;4947074;29;20043;-69
2022/02/06 14:20:26;;;;;;;1.20;0.43;;;;;;;;;;4927848;29;20424;-69
2022/02/06 14:22:55;;;;;;;1.27;0.57;;;;;;;;;;4931704;29;20106;-70
2022/02/06 14:25:29;;;;;;;5.15;1.17;;;;;;;;;;4931812;29;20079;-70
2022/02/06 14:27:57;;;;;;;1.98;1.40;;;;;;;;;;4932009;29;20300;-69
2022/02/06 14:30:39;;;;;;;0.90;0.73;;;;;;;;;;4931471;29;20047;-68
2022/02/06 14:33:19;;;;;;;2.83;0.93;;;;;;;;;;4928264;29;20095;-68
2022/02/06 14:35:54;;;;;;;1.65;0.73;;;;;;;;;;4931074;29;20114;-69
2022/02/06 14:38:31;;;;;;;1.42;0.55;;;;;;;;;;4933641;29;20110;-70
2022/02/06 14:43:45;;;;;;;0.75;0.57;;;;;;;;;;4961486;23;20063;-67
2022/02/06 14:46:17;;;;;;;1.98;0.77;;;;;;;;;;4938685;29;20094;-69
2022/02/06 14:48:44;;;;;;;2.05;0.82;;;;;;;;;;4955537;29;20047;-69
2022/02/06 14:51:20;;;;;;;1.70;0.73;;;;;;;;;;4946804;28;20159;-67
2022/02/06 14:53:46;;;;;;;2.30;0.70;;;;;;;;;;4953940;29;20051;-68
2022/02/06 14:56:13;;;;;;;5.10;1.27;;;;;;;;;;4946530;29;20058;-68
2022/02/06 14:58:40;;;;;;;1.88;0.55;;;;;;;;;;4947803;29;20426;-70
2022/02/06 15:01:08;;;;;;;1.80;1.10;;;;;;;;;;4948178;28;20059;-69
2022/02/06 15:03:35;;;;;;;2.20;1.23;;;;;;;;;;4948101;29;20077;-71
2022/02/06 15:06:02;;;;;;;2.53;1.27;;;;;;;;;;4947565;29;20047;-69
2022/02/06 15:08:28;;;;;;;1.25;0.70;;;;;;;;;;4948701;29;20051;-70
2022/02/06 15:10:55;;;;;;;3.35;0.93;;;;;;;;;;4947069;29;20099;-69
2022/02/06 15:13:22;;;;;;;1.83;1.10;;;;;;;;;;4948257;29;20051;-69
2022/02/06 15:15:53;;;;;;;1.58;1.10;;;;;;;;;;4946880;29;20469;-70
2022/02/06 15:20:51;;;;;;;2.10;0.65;;;;;;;;;;4944438;29;20102;-68
2022/02/06 15:23:18;;;;;;;2.50;1.15;;;;;;;;;;4948409;28;20110;-69
2022/02/06 15:25:45;;;;;;;1.23;0.70;;;;;;;;;;4947526;29;20055;-69
2022/02/06 15:28:11;;;;;;;1.00;0.68;;;;;;;;;;4946472;29;20395;-68
2022/02/06 15:30:38;;;;;;;0.98;0.60;;;;;;;;;;4947362;29;20100;-67
2022/02/06 15:33:05;;;;;;;2.40;0.70;;;;;;;;;;4946218;29;20055;-68
2022/02/06 15:35:33;;;;;;;0.40;0.40;;;;;;;;;;4948191;29;20052;-67
2022/02/06 15:38:01;;;;;;;2.53;1.38;;;;;;;;;;4946665;28;20051;-69
2022/02/06 15:40:29;;;;;;;1.27;0.88;;;;;;;;;;4948609;29;20053;-66
2022/02/06 15:42:55;;;;;;;0.70;0.57;;;;;;;;;;4946093;28;20103;-68
2022/02/06 15:45:22;;;;;;;2.03;0.85;;;;;;;;;;4940575;28;20055;-67
2022/02/06 15:47:49;;;;;;;1.05;0.60;;;;;;;;;;4944723;29;20502;-68
2022/02/06 15:50:15;;;;;;;0.40;0.40;;;;;;;;;;4945747;29;20176;-69
2022/02/06 15:52:42;;;;;;;0.88;0.80;;;;;;;;;;4943480;29;20138;-71
2022/02/06 15:55:09;;;;;;;0.73;0.50;;;;;;;;;;4947334;28;20362;-71
2022/02/06 15:57:36;;;;;;;0.50;0.50;;;;;;;;;;4946522;28;20052;-72
2022/02/06 16:00:05;;;;;;;0.82;0.60;;;;;;;;;;4946356;29;20054;-72
2022/02/06 16:02:32;;;;;;;2.53;0.60;;;;;;;;;;4944217;29;20056;-72
2022/02/06 16:04:59;;;;;;;6.55;2.78;;;;;;;;;;4945917;28;20102;-74
2022/02/06 16:07:26;;;;;;;3.72;2.50;;;;;;;;;;4945151;29;20438;-73
2022/02/06 16:09:53;;;;;;;3.58;1.10;;;;;;;;;;4945345;28;20062;-72
2022/02/06 16:12:20;;;;;;;1.33;0.75;;;;;;;;;;4946845;29;20430;-72
2022/02/06 16:14:47;;;;;;;1.02;0.80;;;;;;;;;;4940413;28;20051;-71
2022/02/06 16:17:14;;;;;;;0.52;0.40;;;;;;;;;;4946864;29;20478;-72
2022/02/06 16:20:16;;;;;;;0.50;0.50;;;;;;;;;;4949114;29;20487;-71
2022/02/06 16:22:43;;;;;;;0.80;0.68;;;;;;;;;;4943248;29;20459;-71
2022/02/06 16:25:10;;;;;;;0.85;0.73;;;;;;;;;;4946699;29;20072;-71
2022/02/06 16:27:37;;;;;;;0.63;0.40;;;;;;;;;;4946764;28;20103;-72
2022/02/06 16:30:04;;;;;;;1.02;0.73;;;;;;;;;;4946831;29;20051;-72
2022/02/06 16:32:33;;;;;;;0.55;0.45;;;;;;;;;;4959226;28;20079;-71
2022/02/06 16:34:59;;;;;;;1.55;0.80;;;;;;;;;;4946205;28;20060;-70
2022/02/06 16:37:26;;;;;;;0.28;0.28;;;;;;;;;;4947008;29;20110;-72
2022/02/06 16:39:52;;;;;;;0.57;0.57;;;;;;;;;;4946199;29;20055;-72
2022/02/06 16:42:20;;;;;;;0.98;0.70;;;;;;;;;;4936022;29;20111;-72
2022/02/06 16:44:47;;;;;;;0.80;0.55;;;;;;;;;;4942929;28;20055;-72
2022/02/06 16:47:14;;;;;;;0.30;0.30;;;;;;;;;;4946193;29;20534;-73
2022/02/06 16:49:41;;;;;;;0.88;0.52;;;;;;;;;;4918663;29;20058;-75
2022/02/06 16:52:36;;;;;;;1.73;0.75;;;;;;;;;;4929506;29;20047;-76
2022/02/06 16:55:04;;;;;;;1.42;0.90;;;;;;;;;;4936204;28;20051;-72
2022/02/06 16:57:32;;;;;;;1.10;0.50;;;;;;;;;;4949317;29;20102;-72
2022/02/06 17:00:00;;;;;;;1.88;0.90;;;;;;;;;;4919340;28;20066;-74
2022/02/06 17:02:27;;;;;;;1.23;0.70;;;;;;;;;;4926527;29;20047;-72
2022/02/06 17:04:57;;;;;;;1.42;0.70;;;;;;;;;;4943624;29;20055;-72
2022/02/06 17:07:31;;;;;;;2.72;1.63;;;;;;;;;;4950814;29;20080;-72
2022/02/06 17:09:58;;;;;;;1.38;0.68;;;;;;;;;;4958335;28;20062;-71
2022/02/06 17:12:24;;;;;;;0.95;0.50;;;;;;;;;;4939783;29;20072;-71
2022/02/06 17:14:51;;;;;;;2.38;1.17;;;;;;;;;;4942338;29;20471;-71
2022/02/06 17:17:18;;;;;;;1.88;1.10;;;;;;;;;;4944221;29;20046;-71
2022/02/06 17:19:46;;;;;;;2.25;1.08;;;;;;;;;;4940620;29;20048;-71
2022/02/06 17:22:13;;;;;;;0.75;0.55;;;;;;;;;;4944122;28;20059;-70
2022/02/06 17:24:40;;;;;;;0.85;0.50;;;;;;;;;;4943531;28;20052;-71
2022/02/06 17:27:07;;;;;;;0.85;0.70;;;;;;;;;;4944664;29;20039;-70
2022/02/06 17:29:33;;;;;;;0.40;0.40;;;;;;;;;;4945004;29;20103;-71
2022/02/06 17:32:02;;;;;;;1.42;1.00;;;;;;;;;;4943825;29;20051;-71
2022/02/06 17:34:29;;;;;;;1.90;1.17;;;;;;;;;;4944548;29;20079;-73